Latest Weather Observations for Parafield

IDS60801

Issued at 9:31 pm CDT Saturday 28 March 2015 (issued every 30 minutes, with the page automatically refreshed every 10 minutes)

About weather observations | Map of weather stations | Latest weather observations for SA | Other Formats
Station Details ID: 023013 Name: PARAFIELD AIRPORT Lat: -34.80 Lon: 138.63 Height: 9.5 m
Data from the previous 72 hours. | See also: Recent months at Parafield
Date/Time
CDT
Temp
°C
App
Temp
°C
Dew
Point
Rel
Hum
%
Delta-T
°C
Wind Press
QNH
hPa
Press
MSL
hPa
Rain
since 9 am
mm
Dir
 
Spd
km/h
Gust
km/h
Spd
kts
Gust
kts
28/09:30pm 15.6 13.5 5.8 52 4.7 NE 6 7 3 4 1022.2 1022.1 0.0
28/09:00pm 17.1 14.9 6.3 49 5.3 NE 7 9 4 5 1021.9 1021.8 0.0
28/08:30pm 18.3 17.3 5.8 44 6.1 CALM 0 0 0 0 1021.8 1021.7 0.0
28/08:00pm 18.1 17.3 6.3 46 5.8 CALM 0 0 0 0 1021.7 1021.6 0.0
28/07:30pm 18.9 17.9 5.7 42 6.5 CALM 0 4 0 2 1021.4 1021.4 0.0
28/07:00pm 19.8 18.0 5.5 39 7.0 SW 4 6 2 3 1021.1 1021.1 0.0
28/06:30pm 20.6 18.3 5.8 38 7.3 WSW 7 9 4 5 1021.0 1021.0 0.0
28/06:00pm 21.5 18.8 5.8 36 7.8 WNW 9 15 5 8 1020.6 1020.6 0.0
28/05:30pm 21.9 18.9 5.8 35 8.1 WNW 11 15 6 8 1020.7 1020.7 0.0
28/05:00pm 22.3 18.9 6.1 35 8.2 W 13 19 7 10 1020.9 1020.9 0.0
28/04:30pm 22.9 19.1 5.8 33 8.6 WSW 15 22 8 12 1021.3 1021.3 0.0
28/04:00pm 22.1 17.9 5.9 35 8.2 W 17 22 9 12 1021.4 1021.4 0.0
28/03:30pm 22.2 17.9 6.8 37 7.9 W 19 26 10 14 1021.8 1021.7 0.0
28/03:00pm 23.0 19.6 9.0 41 7.5 WSW 17 24 9 13 1022.2 1022.1 0.0
28/02:30pm 22.2 18.2 8.3 41 7.3 W 19 24 10 13 1022.5 1022.4 0.0
28/02:00pm 22.2 18.2 8.3 41 7.3 WNW 19 26 10 14 1022.9 1022.8 0.0
28/01:30pm 23.0 19.2 7.5 37 8.0 N 17 32 9 17 1023.1 1023.0 0.0
28/01:00pm 22.5 18.8 7.9 39 7.6 NNW 17 22 9 12 1023.6 1023.5 0.0
28/12:30pm 21.8 18.3 8.7 43 6.9 NNE 17 24 9 13 1024.2 1024.1 0.0
28/12:00pm 20.8 16.8 8.1 44 6.6 N 19 28 10 15 1024.6 1024.5 0.0
28/11:30am 20.1 16.0 7.8 45 6.3 NNE 19 28 10 15 1025.0 1024.9 0.0
28/11:00am 19.9 16.0 8.6 48 5.9 NE 19 28 10 15 1025.3 1025.2 0.0
28/10:30am 19.0 15.1 8.6 51 5.4 NNE 19 30 10 16 1025.7 1025.6 0.0
28/10:00am 17.9 14.5 9.0 56 4.6 NNE 17 24 9 13 1025.9 1025.8 0.0
28/09:30am 16.4 13.7 8.9 61 3.8 NE 13 20 7 11 1026.0 1025.9 0.0
28/09:00am 13.7 13.6 9.4 75 2.2 CALM 0 0 0 0 1026.1 1026.0 0.0
28/08:30am 10.7 10.5 9.1 90 0.8 CALM 0 0 0 0 1025.8 1025.7 0.0
28/08:00am 9.1 8.5 7.5 90 0.8 CALM 0 6 0 3 1025.6 1025.5 0.0
28/07:30am 8.3 7.6 6.9 91 0.6 CALM 0 0 0 0 1025.5 1025.4 0.0
28/07:00am 8.3 7.5 6.6 89 0.8 CALM 0 0 0 0 1025.7 1025.6 0.0
28/06:30am 8.3 7.5 6.6 89 0.8 CALM 0 0 0 0 1025.7 1025.6 0.0
28/06:00am 9.3 8.7 7.4 88 0.9 CALM 0 0 0 0 1025.6 1025.5 0.0
28/05:30am 9.6 9.0 7.5 87 1.0 CALM 0 0 0 0 1025.8 1025.7 0.0
28/05:00am 9.5 8.9 7.3 86 1.0 CALM 0 0 0 0 1025.7 1025.6 0.0
28/04:30am 10.0 8.0 7.3 83 1.3 WNW 7 9 4 5 1025.7 1025.6 0.0
28/04:00am 12.0 10.2 7.9 76 2.0 E 7 19 4 10 1025.6 1025.5 0.0
28/03:30am 12.7 11.2 8.6 76 2.0 NNE 6 11 3 6 1025.5 1025.4 0.0
28/03:00am 12.8 9.3 8.7 76 2.0 ESE 17 26 9 14 1025.3 1025.2 0.0
28/02:30am 12.7 9.1 8.4 75 2.1 ESE 17 20 9 11 1025.7 1025.6 0.0
28/02:00am 12.9 9.0 8.6 75 2.1 ESE 19 22 10 12 1026.3 1026.2 0.0
28/01:30am 13.2 9.7 8.7 74 2.2 ESE 17 20 9 11 1026.7 1026.6 0.0
28/01:00am 12.9 10.1 8.4 74 2.2 ESE 13 17 7 9 1026.4 1026.3 0.0
28/12:30am 12.5 10.0 8.0 74 2.2 ESE 11 13 6 7 1026.5 1026.4 0.0
28/12:00am 13.4 10.2 8.5 72 2.4 ESE 15 17 8 9 1026.8 1026.7 0.0
 
Date/Time
CDT
Temp
°C
App
Temp
°C
Dew
Point
Rel
Hum
%
Delta-T
°C
Wind Press
QNH
hPa
Press
MSL
hPa
Rain
since 9 am
mm
Dir
 
Spd
km/h
Gust
km/h
Spd
kts
Gust
kts
27/11:30pm 13.4 10.6 8.5 72 2.4 ESE 13 19 7 10 1027.0 1026.9 0.0
27/11:00pm 13.0 10.5 8.3 73 2.3 SE 11 15 6 8 1027.1 1027.0 0.0
27/10:30pm 13.9 12.3 8.7 71 2.6 SSE 7 9 4 5 1027.3 1027.2 0.0
27/10:00pm 14.0 12.3 8.4 69 2.8 ESE 7 9 4 5 1027.3 1027.2 0.0
27/09:30pm 14.7 11.9 8.6 67 3.1 SE 13 13 7 7 1027.3 1027.2 0.0
27/09:00pm 16.0 12.4 8.2 60 3.9 SE 17 20 9 11 1027.0 1026.9 0.0
27/08:30pm 16.8 14.0 8.5 58 4.2 SE 13 19 7 10 1026.8 1026.7 0.0
27/08:00pm 16.9 14.5 10.1 64 3.6 S 13 20 7 11 1026.6 1026.5 0.0
27/07:30pm 16.6 13.6 10.7 68 3.1 SSW 17 20 9 11 1026.5 1026.4 0.0
27/07:00pm 16.7 13.4 10.8 68 3.2 SSW 19 26 10 14 1026.4 1026.3 0.0
27/06:30pm 16.9 13.2 10.3 65 3.5 SW 20 28 11 15 1026.3 1026.2 0.0
27/06:00pm 17.4 13.7 10.3 63 3.8 SW 20 28 11 15 1026.4 1026.3 0.0
27/05:30pm 17.6 14.0 10.5 63 3.8 SW 20 26 11 14 1026.2 1026.1 0.0
27/05:00pm 18.0 14.3 10.1 60 4.2 SW 20 28 11 15 1026.2 1026.1 0.0
27/04:30pm 18.4 14.4 10.3 59 4.3 SW 22 32 12 17 1026.4 1026.3 0.0
27/04:00pm 18.6 14.8 9.7 56 4.7 SW 20 26 11 14 1026.4 1026.3 0.0
27/03:30pm 18.5 14.8 9.3 55 4.8 SW 19 30 10 16 1026.5 1026.4 0.0
27/03:00pm 19.0 15.0 9.2 53 5.1 SW 20 37 11 20 1026.5 1026.4 0.0
27/02:30pm 19.5 15.4 8.8 50 5.6 SW 20 32 11 17 1026.9 1026.8 0.0
27/02:00pm 18.0 14.0 8.3 53 5.0 SW 19 26 10 14 1027.5 1027.4 0.0
27/01:30pm 18.6 16.4 8.0 50 5.4 WNW 9 17 5 9 1027.7 1027.6 0.0
27/01:00pm 18.7 15.9 6.9 46 5.9 SW 11 19 6 10 1028.3 1028.2 0.0
27/12:30pm 18.2 14.7 7.0 48 5.6 SW 15 20 8 11 1028.9 1028.8 0.0
27/12:00pm 18.0 14.8 6.8 48 5.5 SSW 13 20 7 11 1029.1 1029.0 0.0
27/11:30am 17.1 14.7 6.9 51 5.0 W 9 17 5 9 1029.5 1029.4 0.0
27/11:00am 16.9 15.3 8.6 58 4.3 W 7 11 4 6 1029.6 1029.5 0.0
27/10:30am 15.8 14.3 9.2 65 3.4 NNW 7 9 4 5 1029.9 1029.8 0.0
27/10:00am 14.6 13.1 9.2 70 2.8 NNW 7 11 4 6 1030.0 1029.9 0.0
27/09:30am 14.3 12.9 9.7 74 2.4 NNW 7 9 4 5 1029.9 1029.8 0.0
27/09:00am 13.8 12.0 9.6 76 2.1 N 9 9 5 5 1029.7 1029.6 0.0
27/08:30am 13.6 11.8 9.3 75 2.2 N 9 11 5 6 1029.5 1029.4 0.0
27/08:00am 13.3 11.9 9.4 77 2.0 N 7 9 4 5 1029.2 1029.1 0.0
27/07:30am 13.2 11.1 9.6 79 1.8 N 11 13 6 7 1028.7 1028.6 0.0
27/07:00am 13.6 13.4 8.9 73 2.4 CALM 0 0 0 0 1028.4 1028.3 0.0
27/06:30am 13.6 11.9 8.2 70 2.7 SSW 7 17 4 9 1028.2 1028.1 0.0
27/06:00am 12.8 12.7 9.3 79 1.8 CALM 0 4 0 2 1027.8 1027.7 0.0
27/05:30am 12.7 11.5 9.5 81 1.6 SW 6 9 3 5 1027.6 1027.5 0.0
27/05:00am 12.7 12.7 9.7 82 1.5 CALM 0 0 0 0 1027.5 1027.4 0.0
27/04:30am 12.5 12.5 9.7 83 1.4 CALM 0 6 0 3 1027.5 1027.4 0.0
27/04:00am 12.5 11.1 9.7 83 1.4 ENE 7 9 4 5 1027.7 1027.6 0.0
27/03:30am 12.3 9.7 9.5 83 1.4 SSE 13 17 7 9 1028.0 1027.9 0.0
27/03:00am 13.1 13.0 9.4 78 1.9 CALM 0 0 0 0 1028.2 1028.1 0.0
27/02:30am 13.1 12.7 8.4 73 2.3 CALM 0 0 0 0 1028.1 1028.0 0.0
27/02:00am 13.4 12.0 8.7 73 2.4 W 6 11 3 6 1028.4 1028.3 0.0
27/01:30am 13.3 9.4 9.5 78 1.9 WSW 20 28 11 15 1028.6 1028.5 0.0
27/01:00am 14.3 11.1 6.9 61 3.6 S 13 19 7 10 1028.4 1028.3 0.0
27/12:30am 14.5 11.0 7.1 61 3.6 S 15 20 8 11 1028.5 1028.4 0.0
27/12:00am 14.3 10.8 7.1 62 3.5 S 15 19 8 10 1028.5 1028.4 0.0
 
Date/Time
CDT
Temp
°C
App
Temp
°C
Dew
Point
Rel
Hum
%
Delta-T
°C
Wind Press
QNH
hPa
Press
MSL
hPa
Rain
since 9 am
mm
Dir
 
Spd
km/h
Gust
km/h
Spd
kts
Gust
kts
26/11:30pm 14.2 11.0 7.0 62 3.5 S 13 15 7 8 1028.6 1028.5 0.0
26/11:00pm 14.1 11.0 7.2 63 3.4 S 13 17 7 9 1028.5 1028.4 0.0
26/10:30pm 14.0 10.1 7.3 64 3.3 SSE 17 22 9 12 1028.6 1028.5 0.0
26/10:00pm 14.0 9.7 7.8 66 3.1 S 20 26 11 14 1028.6 1028.5 0.0
26/09:30pm 15.2 10.9 7.0 58 4.0 SSW 19 35 10 19 1028.4 1028.3 0.0
26/09:00pm 15.3 10.7 6.3 55 4.3 SSW 20 26 11 14 1028.1 1028.0 0.0
26/08:30pm 15.4 10.0 6.4 55 4.3 SSW 24 32 13 17 1028.0 1027.9 0.0
26/08:00pm 15.2 11.8 6.0 54 4.4 SSW 13 20 7 11 1027.9 1027.8 0.0
26/07:30pm 15.6 10.5 5.8 52 4.7 SSW 22 30 12 16 1027.7 1027.6 0.0
26/07:00pm 15.5 9.8 5.1 50 4.9 SSW 24 30 13 16 1027.5 1027.4 0.0
26/06:30pm 16.2 10.7 3.9 44 5.7 SW 22 30 12 16 1027.1 1027.0 0.0
26/06:00pm 16.6 10.6 5.3 47 5.4 SSW 26 35 14 19 1026.8 1026.7 0.0
26/05:30pm 16.7 12.0 5.3 47 5.4 WSW 19 30 10 16 1026.7 1026.6 0.0
26/05:00pm 15.2 11.0 8.4 64 3.4 W 20 28 11 15 1026.6 1026.5 0.0
26/04:30pm 15.7 10.7 8.2 61 3.8 WSW 24 37 13 20 1026.6 1026.5 0.0
26/04:00pm 17.4 11.7 6.6 49 5.3 WSW 26 35 14 19 1026.3 1026.2 0.0
26/03:30pm 18.5 11.3 5.0 41 6.5 WSW 32 43 17 23 1026.2 1026.1 0.0
26/03:00pm 17.5 11.7 6.1 47 5.5 SW 26 37 14 20 1026.4 1026.3 0.0
26/02:30pm 17.7 10.9 5.0 43 6.1 SW 30 41 16 22 1026.5 1026.4 0.0
26/02:00pm 18.2 11.4 5.1 42 6.3 SW 30 41 16 22 1026.7 1026.6 0.0
26/01:30pm 16.9 10.1 6.7 51 5.0 WSW 32 39 17 21 1026.9 1026.8 0.0
26/01:00pm 18.3 11.6 3.4 37 6.9 WSW 28 37 15 20 1026.9 1026.8 0.0
26/12:30pm 17.9 11.4 4.5 41 6.3 SW 28 39 15 21 1026.9 1026.8 0.0
26/12:00pm 17.4 10.5 4.7 43 6.0 SW 30 41 16 22 1026.9 1026.8 0.0
26/11:30am 18.5 11.8 5.4 42 6.3 SW 30 41 16 22 1026.8 1026.7 0.0
26/11:00am 17.2 10.1 5.5 46 5.6 SW 32 41 17 22 1026.8 1026.7 0.0
26/10:30am 17.5 10.6 4.5 42 6.1 SW 30 39 16 21 1026.5 1026.4 0.0
26/10:00am 15.4 8.6 5.0 50 4.9 SW 30 41 16 22 1026.3 1026.2 0.0
26/09:30am 15.9 9.7 4.3 46 5.4 SW 26 35 14 19 1025.9 1025.8 0.0
26/09:00am 15.3 8.8 4.7 49 4.9 SW 28 39 15 21 1025.6 1025.5 0.8
26/08:30am 14.9 8.4 4.9 51 4.7 SW 28 39 15 21 1025.0 1024.9 0.8
26/08:00am 13.8 8.8 3.6 50 4.6 SW 19 28 10 15 1024.7 1024.6 0.8
26/07:30am 13.4 7.9 4.0 53 4.2 SW 22 37 12 20 1024.3 1024.2 0.8
26/07:00am 13.5 7.5 3.3 50 4.6 SW 24 33 13 18 1023.8 1023.7 0.8
26/06:30am 13.4 7.8 3.2 50 4.5 SW 22 35 12 19 1023.4 1023.3 0.8
26/06:00am 13.6 7.2 3.1 49 4.7 SW 26 35 14 19 1023.1 1023.0 0.8
26/05:30am 13.6 7.7 3.7 51 4.5 SW 24 37 13 20 1022.8 1022.7 0.8
26/05:00am 13.4 8.5 4.3 54 4.2 SW 19 28 10 15 1022.7 1022.6 0.8
26/04:30am 13.2 7.7 3.8 53 4.2 SW 22 30 12 16 1022.6 1022.5 0.8
26/04:00am 13.3 7.0 3.9 53 4.3 SW 26 35 14 19 1022.5 1022.4 0.8
26/03:30am 13.5 6.8 3.6 51 4.4 SW 28 37 15 20 1022.3 1022.2 0.8
26/03:00am 13.5 6.6 4.6 55 4.1 SW 30 41 16 22 1022.4 1022.3 0.8
26/02:30am 13.9 7.2 3.9 51 4.5 SW 28 41 15 22 1022.4 1022.3 0.8
26/02:00am 13.9 6.4 3.4 49 4.7 SW 32 43 17 23 1022.3 1022.2 0.8
26/01:30am 13.8 6.8 3.9 51 4.5 SW 30 41 16 22 1022.2 1022.1 0.8
26/01:00am 14.0 7.4 4.0 51 4.6 SW 28 41 15 22 1022.0 1021.9 0.8
26/12:30am 13.8 7.4 3.3 49 4.7 SW 26 35 14 19 1021.9 1021.8 0.8
26/12:00am 13.9 8.6 4.8 54 4.2 SW 22 39 12 21 1021.9 1021.8 0.8
 
Date/Time
CDT
Temp
°C
App
Temp
°C
Dew
Point
Rel
Hum
%
Delta-T
°C
Wind Press
QNH
hPa
Press
MSL
hPa
Rain
since 9 am
mm
Dir
 
Spd
km/h
Gust
km/h
Spd
kts
Gust
kts
25/11:30pm 14.0 8.7 4.9 54 4.2 SW 22 33 12 18 1021.9 1021.8 0.8
25/11:00pm 13.7 7.0 3.5 50 4.6 WSW 28 37 15 20 1021.8 1021.7 0.8
25/10:30pm 13.9 7.5 5.3 56 4.0 SW 28 39 15 21 1021.5 1021.5 0.8
25/10:00pm 14.0 8.0 5.4 56 4.0 SW 26 41 14 22 1021.2 1021.2 0.8

Other Formats:

Comma delimited format used in spreadsheet applications
http://www.bom.gov.au/fwo/IDS60801/IDS60801.95677.axf

JavaScript Object Notation format (JSON) in row-major order
http://www.bom.gov.au/fwo/IDS60801/IDS60801.95677.json